Terminal Aerodrome Forecast
Issued by NWS

Home | Current Version | Previous Version | Text Only | Print | Product List | Glossary On
Versions: 1 2 3 4 5 6 7 8 9 10 11 12 13 14 15 16 17
892
FTUS46 KPDT 050520
TAFALW
TAF
KALW 050520Z 0506/0606 18009KT P6SM FEW015 SCT050 BKN070
     FM050800 17007KT P6SM SCT050 BKN100
     FM052000 32008KT P6SM -SHRA SCT050 BKN090
      TEMPO 0522/0602 -TSRA BKN050CB OVC090=

USA.gov is the U.S. government's official web portal to all federal, state and local government web resources and services.